createdAt,value
2023-01-29T00:00:15.896Z,8.70
2023-01-29T00:02:44.317Z,11.02
2023-01-29T00:05:26.908Z,8.48
2023-01-29T00:07:55.507Z,7.82
2023-01-29T00:10:23.820Z,9.55
2023-01-29T00:12:53.074Z,9.57
2023-01-29T00:15:21.675Z,8.20
2023-01-29T00:17:51.098Z,8.73
2023-01-29T00:20:20.837Z,11.25
2023-01-29T00:22:49.012Z,7.72
2023-01-29T00:25:17.431Z,8.32
2023-01-29T00:27:45.742Z,8.10
2023-01-29T00:30:16.446Z,8.13
2023-01-29T00:33:02.512Z,7.10
2023-01-29T00:35:32.851Z,7.90
2023-01-29T00:38:01.235Z,8.95
2023-01-29T00:40:49.721Z,9.85
2023-01-29T00:43:35.334Z,9.00
2023-01-29T00:46:03.888Z,5.93
2023-01-29T00:48:32.613Z,8.60
2023-01-29T00:51:02.615Z,11.07
2023-01-29T00:53:30.993Z,10.20
2023-01-29T00:55:59.276Z,11.98
2023-01-29T00:58:28.531Z,7.70
2023-01-29T01:00:57.304Z,7.40
2023-01-29T01:03:24.558Z,7.85
2023-01-29T01:06:03.344Z,8.45
2023-01-29T01:08:50.663Z,10.75
2023-01-29T01:11:19.081Z,10.05
2023-01-29T01:13:47.239Z,8.60
2023-01-29T01:16:18.831Z,11.05
2023-01-29T01:18:47.145Z,9.45
2023-01-29T01:21:15.415Z,8.23
2023-01-29T01:23:45.358Z,5.88
2023-01-29T01:26:24.962Z,10.15
2023-01-29T01:28:53.489Z,8.43
2023-01-29T01:31:21.865Z,8.90
2023-01-29T01:33:51.374Z,12.68
2023-01-29T01:36:21.493Z,8.95
2023-01-29T01:38:51.005Z,6.82
2023-01-29T01:41:21.973Z,8.43
2023-01-29T01:43:52.550Z,7.35
2023-01-29T01:46:21.204Z,5.95
2023-01-29T01:48:55.864Z,7.18
2023-01-29T01:51:27.498Z,9.02
2023-01-29T01:54:02.894Z,7.25
2023-01-29T01:56:38.599Z,8.50
2023-01-29T01:59:09.188Z,6.93
2023-01-29T02:01:38.353Z,8.70
2023-01-29T02:04:27.256Z,8.40
2023-01-29T02:07:15.616Z,8.00
2023-01-29T02:09:51.466Z,8.50
2023-01-29T02:12:21.064Z,7.20
2023-01-29T02:14:49.712Z,6.22
2023-01-29T02:17:20.698Z,8.05
2023-01-29T02:19:59.519Z,11.68
2023-01-29T02:22:47.409Z,8.43
2023-01-29T02:25:48.910Z,6.93
2023-01-29T02:28:38.663Z,7.40
2023-01-29T02:31:13.926Z,8.00
2023-01-29T02:33:50.328Z,9.27
2023-01-29T02:36:32.495Z,9.48
2023-01-29T02:39:11.910Z,9.65
2023-01-29T02:41:45.745Z,8.05
2023-01-29T02:44:23.357Z,8.80
2023-01-29T02:46:59.664Z,9.20
2023-01-29T02:49:34.751Z,8.02
2023-01-29T02:52:09.628Z,8.48
2023-01-29T02:54:46.090Z,8.55
2023-01-29T02:57:22.833Z,7.45
2023-01-29T02:59:58.755Z,6.93
2023-01-29T03:02:35.403Z,11.93
2023-01-29T03:05:08.358Z,8.82
2023-01-29T03:07:46.187Z,8.75
2023-01-29T03:10:45.083Z,8.45
2023-01-29T03:13:18.623Z,8.15
2023-01-29T03:15:52.315Z,8.02
2023-01-29T03:18:41.501Z,10.52
2023-01-29T03:21:29.409Z,9.38
2023-01-29T03:24:19.333Z,13.32
2023-01-29T03:27:07.210Z,8.27
2023-01-29T03:29:59.865Z,10.25
2023-01-29T03:32:44.415Z,7.90
2023-01-29T03:35:21.025Z,7.60
2023-01-29T03:38:10.125Z,8.45
2023-01-29T03:40:45.504Z,8.48
2023-01-29T03:43:26.357Z,8.23
2023-01-29T03:46:05.141Z,8.75
2023-01-29T03:48:39.759Z,8.82
2023-01-29T03:51:21.205Z,7.57
2023-01-29T03:53:54.797Z,8.70
2023-01-29T03:56:35.167Z,9.60
2023-01-29T03:59:15.873Z,8.13
2023-01-29T04:02:07.809Z,11.60
2023-01-29T04:04:40.065Z,10.55
2023-01-29T04:07:13.670Z,10.73
2023-01-29T04:09:47.694Z,12.60
2023-01-29T04:12:21.738Z,8.00
2023-01-29T04:14:55.451Z,11.80
2023-01-29T04:17:26.980Z,10.60
2023-01-29T04:20:18.287Z,9.57
2023-01-29T04:23:08.036Z,9.55
2023-01-29T04:25:49.973Z,8.70
2023-01-29T04:28:24.535Z,10.50
2023-01-29T04:30:58.469Z,8.52
2023-01-29T04:33:36.043Z,9.68
2023-01-29T04:36:19.615Z,8.40
2023-01-29T04:39:04.091Z,7.88
2023-01-29T04:41:37.677Z,8.98
2023-01-29T04:44:12.201Z,8.60
2023-01-29T04:46:49.074Z,12.05
2023-01-29T04:49:28.735Z,10.68
2023-01-29T04:52:07.143Z,12.23
2023-01-29T04:54:51.705Z,12.55
2023-01-29T04:57:25.483Z,10.18
2023-01-29T05:00:01.663Z,10.95
2023-01-29T05:02:33.453Z,9.05
2023-01-29T05:05:02.593Z,8.88
2023-01-29T05:07:32.474Z,9.98
2023-01-29T05:10:01.371Z,8.68
2023-01-29T05:12:31.704Z,8.93
2023-01-29T05:15:03.113Z,10.35
2023-01-29T05:17:31.570Z,8.48
2023-01-29T05:19:59.645Z,11.43
2023-01-29T05:22:28.642Z,7.65
2023-01-29T05:24:58.017Z,8.40
2023-01-29T05:27:51.141Z,7.35
2023-01-29T05:30:19.482Z,8.65
2023-01-29T05:32:47.847Z,9.30
2023-01-29T05:35:16.299Z,8.98
2023-01-29T05:37:44.676Z,7.75
2023-01-29T05:40:14.842Z,11.25
2023-01-29T05:42:43.337Z,8.98
2023-01-29T05:45:11.922Z,8.60
2023-01-29T05:47:40.099Z,7.88
2023-01-29T05:50:09.581Z,7.93
2023-01-29T05:52:37.692Z,9.20
2023-01-29T05:55:07.048Z,7.00
2023-01-29T05:57:36.556Z,10.40
2023-01-29T06:00:06.760Z,7.15
2023-01-29T06:02:40.547Z,8.82
2023-01-29T06:05:09.494Z,8.23
2023-01-29T06:07:37.749Z,9.15
2023-01-29T06:10:06.143Z,8.52
2023-01-29T06:12:34.438Z,8.65
2023-01-29T06:15:04.057Z,10.90
2023-01-29T06:17:31.990Z,13.05
2023-01-29T06:20:00.199Z,8.90
2023-01-29T06:22:28.460Z,11.05
2023-01-29T06:24:56.489Z,10.20
2023-01-29T06:27:24.565Z,8.70
2023-01-29T06:29:52.737Z,9.63
2023-01-29T06:32:22.271Z,6.70
2023-01-29T06:34:50.442Z,13.52
2023-01-29T06:37:18.457Z,7.25
2023-01-29T06:39:46.696Z,10.05
2023-01-29T06:42:14.707Z,7.63
2023-01-29T06:44:42.799Z,9.15
2023-01-29T06:47:10.798Z,9.98
2023-01-29T06:49:40.266Z,8.75
2023-01-29T06:52:08.601Z,9.43
2023-01-29T06:54:36.777Z,9.98
2023-01-29T06:57:04.999Z,8.40
2023-01-29T06:59:32.994Z,11.93
2023-01-29T07:02:01.039Z,9.05
2023-01-29T07:04:29.177Z,9.80
2023-01-29T07:07:00.470Z,11.88
2023-01-29T07:09:28.516Z,8.80
2023-01-29T07:11:56.694Z,8.50
2023-01-29T07:14:24.842Z,10.80
2023-01-29T07:16:52.896Z,11.13
2023-01-29T07:19:21.125Z,8.82
2023-01-29T07:21:49.075Z,8.73
2023-01-29T07:24:18.826Z,8.65
2023-01-29T07:26:47.103Z,9.88
2023-01-29T07:29:15.136Z,14.07
2023-01-29T07:31:43.290Z,9.18
2023-01-29T07:34:11.308Z,9.80
2023-01-29T07:36:39.503Z,9.15
2023-01-29T07:39:07.583Z,13.57
2023-01-29T07:41:37.030Z,15.07
2023-01-29T07:44:15.885Z,13.82
2023-01-29T07:46:44.040Z,12.10
2023-01-29T07:49:12.105Z,9.60
2023-01-29T07:51:40.050Z,11.40
2023-01-29T07:54:08.175Z,10.43
2023-01-29T07:56:37.576Z,7.47
2023-01-29T07:59:05.700Z,7.40
2023-01-29T08:01:34.028Z,10.32
2023-01-29T08:04:02.098Z,9.15
2023-01-29T08:06:30.218Z,10.30
2023-01-29T08:08:59.694Z,9.88
2023-01-29T08:11:27.731Z,8.93
2023-01-29T08:13:57.325Z,6.85
2023-01-29T08:16:25.407Z,8.75
2023-01-29T08:18:53.428Z,8.77
2023-01-29T08:21:21.380Z,13.65
2023-01-29T08:23:49.433Z,8.63
2023-01-29T08:26:40.899Z,8.75
2023-01-29T08:29:10.236Z,10.60
2023-01-29T08:31:38.641Z,11.55
2023-01-29T08:34:06.603Z,9.65
2023-01-29T08:36:34.951Z,10.82
2023-01-29T08:39:03.234Z,9.80
2023-01-29T08:41:31.557Z,11.73
2023-01-29T08:44:01.558Z,13.27
2023-01-29T08:46:31.489Z,10.73
2023-01-29T08:48:59.745Z,12.75
2023-01-29T08:51:36.717Z,13.27
2023-01-29T08:54:05.050Z,13.35
2023-01-29T08:56:33.121Z,12.75
2023-01-29T08:59:01.189Z,9.90
2023-01-29T09:01:30.625Z,10.85
2023-01-29T09:03:58.819Z,9.95
2023-01-29T09:06:26.793Z,9.48
2023-01-29T09:08:55.087Z,8.73
2023-01-29T09:11:23.200Z,10.65
2023-01-29T09:13:51.244Z,12.30
2023-01-29T09:16:19.622Z,8.80
2023-01-29T09:18:49.053Z,10.95
2023-01-29T09:21:17.298Z,9.45
2023-01-29T09:23:45.316Z,9.35
2023-01-29T09:26:13.334Z,10.55
2023-01-29T09:28:41.468Z,8.70
2023-01-29T09:31:09.517Z,9.15
2023-01-29T09:33:37.934Z,8.80
2023-01-29T09:36:08.702Z,11.45
2023-01-29T09:38:36.676Z,8.05
2023-01-29T09:41:18.455Z,11.25
2023-01-29T09:43:50.358Z,11.63
2023-01-29T09:46:24.531Z,9.70
2023-01-29T09:49:01.307Z,11.55
2023-01-29T09:51:38.404Z,11.70
2023-01-29T09:54:17.728Z,13.15
2023-01-29T09:56:47.281Z,9.93
2023-01-29T09:59:20.125Z,14.30
2023-01-29T10:01:56.707Z,10.55
2023-01-29T10:04:51.474Z,12.43
2023-01-29T10:07:33.879Z,18.85
2023-01-29T10:10:11.305Z,14.57
2023-01-29T10:12:58.483Z,15.38
2023-01-29T10:15:48.179Z,16.27
2023-01-29T10:18:34.669Z,16.23
2023-01-29T10:21:18.368Z,14.95
2023-01-29T10:23:52.057Z,14.57
2023-01-29T10:26:23.562Z,13.45
2023-01-29T10:28:54.406Z,12.68
2023-01-29T10:31:28.766Z,15.20
2023-01-29T10:34:03.335Z,13.55
2023-01-29T10:36:37.716Z,13.70
2023-01-29T10:39:07.150Z,14.02
2023-01-29T10:41:49.750Z,9.90
2023-01-29T10:44:32.705Z,14.52
2023-01-29T10:47:17.515Z,14.30
2023-01-29T10:50:00.365Z,13.40
2023-01-29T10:52:40.403Z,14.70
2023-01-29T10:55:26.043Z,13.77
2023-01-29T10:58:05.047Z,14.15
2023-01-29T11:00:38.961Z,13.90
2023-01-29T11:03:27.093Z,10.80
2023-01-29T11:06:04.061Z,11.18
2023-01-29T11:08:39.824Z,13.52
2023-01-29T11:11:14.167Z,11.23
2023-01-29T11:13:45.926Z,17.23
2023-01-29T11:16:14.659Z,14.02
2023-01-29T11:18:58.097Z,16.02
2023-01-29T11:21:28.053Z,13.30
2023-01-29T11:24:12.987Z,11.55
2023-01-29T11:26:44.353Z,11.43
2023-01-29T11:29:42.529Z,13.50
2023-01-29T11:32:15.033Z,12.60
2023-01-29T11:35:03.865Z,13.57
2023-01-29T11:37:37.708Z,13.25
2023-01-29T11:40:34.894Z,12.02
2023-01-29T11:43:30.191Z,16.30
2023-01-29T11:46:01.510Z,15.18
2023-01-29T11:48:40.969Z,14.93
2023-01-29T11:51:12.156Z,13.52
2023-01-29T11:53:43.571Z,13.80
2023-01-29T11:56:23.539Z,11.68
2023-01-29T11:58:56.445Z,16.60
2023-01-29T12:01:33.557Z,17.65
2023-01-29T12:04:02.648Z,16.20
2023-01-29T12:06:37.196Z,13.52
2023-01-29T12:09:14.475Z,13.40
2023-01-29T12:11:44.212Z,13.88
2023-01-29T12:14:28.301Z,15.73
2023-01-29T12:16:59.900Z,16.60
2023-01-29T12:19:36.373Z,14.80
2023-01-29T12:22:10.223Z,13.63
2023-01-29T12:24:45.637Z,13.50
2023-01-29T12:27:20.912Z,14.48
2023-01-29T12:29:57.834Z,17.65
2023-01-29T12:33:13.123Z,14.10
2023-01-29T12:35:47.356Z,15.82
2023-01-29T12:38:19.932Z,14.25
2023-01-29T12:40:51.823Z,13.13
2023-01-29T12:43:25.227Z,12.32
2023-01-29T12:45:58.122Z,16.08
2023-01-29T12:48:31.505Z,14.43
2023-01-29T12:51:08.052Z,14.68
2023-01-29T12:53:41.025Z,18.25
2023-01-29T12:56:13.435Z,14.95
2023-01-29T12:58:46.811Z,14.38
2023-01-29T13:01:29.868Z,16.60
2023-01-29T13:04:05.304Z,15.90
2023-01-29T13:06:44.812Z,13.90
2023-01-29T13:13:04.028Z,16.65
2023-01-29T13:24:36.849Z,16.65
2023-01-29T13:27:11.424Z,13.98
2023-01-29T13:29:49.203Z,16.63
2023-01-29T13:32:37.024Z,17.45
2023-01-29T13:35:19.852Z,15.88
2023-01-29T13:38:03.123Z,14.18
2023-01-29T13:40:39.101Z,14.35
2023-01-29T13:43:22.782Z,15.50
2023-01-29T13:45:58.772Z,15.40
2023-01-29T13:48:37.637Z,17.90
2023-01-29T13:51:17.939Z,12.82
2023-01-29T13:59:54.947Z,16.00
2023-01-29T14:02:33.864Z,13.57
2023-01-29T14:05:40.164Z,13.95
2023-01-29T14:08:46.397Z,15.88
2023-01-29T14:11:44.187Z,14.57
2023-01-29T14:14:50.511Z,15.82
2023-01-29T14:17:26.068Z,11.23
2023-01-29T14:20:21.013Z,12.68
2023-01-29T14:23:02.277Z,12.20
2023-01-29T14:25:42.137Z,13.68
2023-01-29T14:28:26.989Z,12.38
2023-01-29T14:31:04.772Z,13.57
2023-01-29T14:33:44.436Z,12.65
2023-01-29T14:36:27.124Z,14.93
2023-01-29T14:39:05.216Z,15.10
2023-01-29T14:41:44.725Z,14.55
2023-01-29T14:45:11.739Z,11.57
2023-01-29T14:48:05.567Z,11.25
2023-01-29T14:50:55.161Z,9.30
2023-01-29T14:53:47.679Z,10.05
2023-01-29T14:56:25.921Z,10.05
2023-01-29T14:59:07.611Z,9.77
2023-01-29T15:01:43.595Z,10.65
2023-01-29T15:04:24.845Z,12.05
2023-01-29T15:07:02.931Z,8.13
2023-01-29T15:09:51.912Z,8.40
2023-01-29T15:12:33.038Z,8.40
2023-01-29T15:15:17.979Z,8.82
2023-01-29T15:18:04.398Z,10.00
2023-01-29T15:20:40.598Z,12.05
2023-01-29T15:23:32.645Z,12.68
2023-01-29T15:26:14.648Z,15.00
2023-01-29T15:28:58.510Z,8.65
2023-01-29T15:31:36.923Z,6.75
2023-01-29T15:34:10.865Z,8.65
2023-01-29T15:36:41.202Z,7.35
2023-01-29T15:39:22.274Z,6.95
2023-01-29T15:42:13.274Z,9.93
2023-01-29T15:44:50.830Z,6.50
2023-01-29T15:47:21.964Z,7.22
2023-01-29T15:49:52.369Z,7.28
2023-01-29T15:52:33.701Z,8.13
2023-01-29T15:55:07.793Z,9.35
2023-01-29T15:57:43.297Z,8.05
2023-01-29T16:00:23.893Z,9.25
2023-01-29T16:02:54.614Z,7.07
2023-01-29T16:05:33.291Z,10.60
2023-01-29T16:08:04.835Z,7.70
2023-01-29T16:10:45.729Z,7.75
2023-01-29T16:13:24.122Z,7.85
2023-01-29T16:15:59.915Z,6.88
2023-01-29T16:18:35.244Z,11.20
2023-01-29T16:21:09.961Z,8.75
2023-01-29T16:23:46.464Z,9.38
2023-01-29T16:26:20.955Z,9.68
2023-01-29T16:28:53.496Z,10.02
2023-01-29T16:31:26.495Z,9.23
2023-01-29T16:33:58.863Z,9.27
2023-01-29T16:36:31.248Z,15.10
2023-01-29T16:39:06.056Z,10.45
2023-01-29T16:41:38.708Z,11.82
2023-01-29T16:44:34.183Z,10.90
2023-01-29T16:47:14.496Z,10.40
2023-01-29T16:49:52.366Z,10.95
2023-01-29T16:52:25.909Z,12.30
2023-01-29T16:55:00.972Z,12.52
2023-01-29T16:57:34.434Z,11.95
2023-01-29T17:00:10.144Z,10.02
2023-01-29T17:03:00.923Z,12.50
2023-01-29T17:08:53.244Z,13.80
2023-01-29T17:11:29.236Z,11.02
2023-01-29T17:13:58.662Z,14.57
2023-01-29T17:16:31.516Z,9.93
2023-01-29T17:19:00.115Z,15.90
2023-01-29T17:21:29.912Z,16.63
2023-01-29T17:23:58.310Z,14.20
2023-01-29T17:26:26.545Z,12.13
2023-01-29T17:28:55.391Z,13.70
2023-01-29T17:31:23.576Z,13.50
2023-01-29T17:33:56.724Z,14.15
2023-01-29T17:36:24.917Z,11.63
2023-01-29T17:39:02.731Z,15.38
2023-01-29T17:41:35.711Z,16.88
2023-01-29T17:44:05.314Z,16.13
2023-01-29T17:46:36.565Z,11.38
2023-01-29T17:49:24.246Z,14.68
2023-01-29T17:51:57.236Z,17.52
2023-01-29T17:54:36.659Z,16.85
2023-01-29T17:57:07.928Z,15.57
2023-01-29T17:59:39.549Z,11.65
2023-01-29T18:02:09.851Z,12.25
2023-01-29T18:05:01.237Z,12.77
2023-01-29T18:07:31.515Z,15.90
2023-01-29T18:10:03.278Z,14.27
2023-01-29T18:12:32.207Z,16.33
2023-01-29T18:15:05.235Z,11.32
2023-01-29T18:17:40.104Z,17.00
2023-01-29T18:20:24.387Z,15.93
2023-01-29T18:22:55.366Z,19.48
2023-01-29T18:25:25.905Z,16.13
2023-01-29T18:27:57.105Z,19.10
2023-01-29T18:30:28.625Z,17.55
2023-01-29T18:33:02.643Z,18.30
2023-01-29T18:35:34.737Z,17.23
2023-01-29T18:38:07.223Z,15.95
2023-01-29T18:40:37.664Z,13.45
2023-01-29T18:43:08.141Z,18.13
2023-01-29T18:45:37.127Z,25.80
2023-01-29T18:48:07.095Z,21.00
2023-01-29T18:50:41.418Z,16.48
2023-01-29T18:53:13.412Z,20.25
2023-01-29T18:55:43.866Z,22.25
2023-01-29T18:58:26.691Z,18.17
2023-01-29T19:01:09.971Z,15.88
2023-01-29T19:03:40.844Z,15.68
2023-01-29T19:06:12.610Z,18.30
2023-01-29T19:08:45.468Z,16.85
2023-01-29T19:11:17.602Z,21.85
2023-01-29T19:13:50.520Z,15.15
2023-01-29T19:16:23.993Z,16.60
2023-01-29T19:18:57.780Z,25.38
2023-01-29T19:21:37.005Z,18.33
2023-01-29T19:24:10.042Z,18.95
2023-01-29T19:26:38.325Z,25.50
2023-01-29T19:29:09.259Z,20.50
2023-01-29T19:31:37.815Z,20.15
2023-01-29T19:34:06.509Z,22.27
2023-01-29T19:36:36.227Z,21.80
2023-01-29T19:39:04.511Z,21.10
2023-01-29T19:41:32.993Z,18.35
2023-01-29T19:44:01.215Z,16.58
2023-01-29T19:46:30.453Z,23.55
2023-01-29T19:48:58.706Z,25.38
2023-01-29T19:51:29.144Z,22.92
2023-01-29T19:53:58.798Z,18.13
2023-01-29T19:56:27.250Z,17.73
2023-01-29T19:58:57.419Z,19.83
2023-01-29T20:01:26.291Z,19.50
2023-01-29T20:03:55.185Z,20.95
2023-01-29T20:06:26.807Z,19.30
2023-01-29T20:08:55.111Z,17.60
2023-01-29T20:11:25.480Z,19.15
2023-01-29T20:13:54.446Z,16.95
2023-01-29T20:16:23.456Z,19.25
2023-01-29T20:18:52.220Z,23.23
2023-01-29T20:21:30.297Z,23.08
2023-01-29T20:23:58.961Z,18.20
2023-01-29T20:26:28.674Z,19.75
2023-01-29T20:28:57.010Z,18.63
2023-01-29T20:31:25.490Z,20.02
2023-01-29T20:33:53.750Z,21.17
2023-01-29T20:36:21.998Z,17.10
2023-01-29T20:38:50.110Z,24.42
2023-01-29T20:41:19.322Z,21.63
2023-01-29T20:43:51.000Z,23.48
2023-01-29T20:46:19.673Z,26.02
2023-01-29T20:48:49.399Z,19.27
2023-01-29T20:51:19.478Z,18.60
2023-01-29T20:53:48.604Z,25.20
2023-01-29T20:56:17.984Z,23.90
2023-01-29T20:58:47.253Z,22.70
2023-01-29T21:01:19.761Z,20.02
2023-01-29T21:03:48.525Z,21.58
2023-01-29T21:06:17.137Z,24.52
2023-01-29T21:08:45.496Z,24.27
2023-01-29T21:11:13.864Z,25.10
2023-01-29T21:13:44.028Z,23.05
2023-01-29T21:16:12.557Z,28.40
2023-01-29T21:18:42.465Z,32.60
2023-01-29T21:21:10.925Z,26.23
2023-01-29T21:23:39.275Z,25.02
2023-01-29T21:26:11.075Z,27.00
2023-01-29T21:28:39.425Z,27.02
2023-01-29T21:31:10.480Z,23.85
2023-01-29T21:33:39.071Z,24.20
2023-01-29T21:36:10.512Z,24.02
2023-01-29T21:38:39.330Z,26.63
2023-01-29T21:41:09.902Z,25.20
2023-01-29T21:48:34.011Z,29.08
2023-01-29T21:51:02.353Z,31.52
2023-01-29T21:53:32.205Z,30.55
2023-01-29T21:56:01.580Z,26.92
2023-01-29T21:58:30.148Z,25.55
2023-01-29T22:01:11.351Z,27.90
2023-01-29T22:03:47.564Z,26.05
2023-01-29T22:06:16.228Z,29.08
2023-01-29T22:08:45.683Z,32.08
2023-01-29T22:11:14.105Z,27.35
2023-01-29T22:13:42.395Z,26.73
2023-01-29T22:16:10.401Z,26.75
2023-01-29T22:18:38.400Z,24.77
2023-01-29T22:21:06.747Z,21.33
2023-01-29T22:23:34.807Z,26.67
2023-01-29T22:26:09.065Z,24.15
2023-01-29T22:28:43.189Z,26.00
2023-01-29T22:31:11.794Z,27.70
2023-01-29T22:33:40.218Z,26.55
2023-01-29T22:36:09.389Z,28.50
2023-01-29T22:38:37.728Z,23.33
2023-01-29T22:41:07.383Z,33.30
2023-01-29T22:43:35.729Z,30.42
2023-01-29T22:46:08.507Z,26.83
2023-01-29T22:48:37.012Z,28.42
2023-01-29T22:51:12.065Z,21.50
2023-01-29T22:53:41.785Z,20.88
2023-01-29T22:56:12.300Z,19.77
2023-01-29T22:58:41.228Z,17.52
2023-01-29T23:01:10.841Z,18.83
2023-01-29T23:03:39.016Z,21.48
2023-01-29T23:06:07.104Z,26.02
2023-01-29T23:08:35.430Z,20.35
2023-01-29T23:11:14.109Z,22.75
2023-01-29T23:13:45.414Z,21.20
2023-01-29T23:16:14.637Z,21.70
2023-01-29T23:18:43.386Z,21.60
2023-01-29T23:21:12.578Z,18.38
2023-01-29T23:23:41.847Z,21.60
2023-01-29T23:26:30.114Z,20.80
2023-01-29T23:29:00.663Z,16.90
2023-01-29T23:31:28.774Z,17.40
2023-01-29T23:33:57.143Z,21.88
2023-01-29T23:36:25.371Z,25.33
2023-01-29T23:38:53.542Z,22.23
2023-01-29T23:41:21.857Z,24.27
2023-01-29T23:43:50.011Z,22.45
2023-01-29T23:46:19.663Z,20.80
2023-01-29T23:48:47.867Z,24.25
2023-01-29T23:51:16.068Z,26.45
2023-01-29T23:53:44.212Z,21.27
2023-01-29T23:56:12.941Z,22.70
2023-01-29T23:58:41.067Z,24.92
